sensor_id;sensor_type;location;lat;lon;timestamp;P1;durP1;ratioP1;P2;durP2;ratioP2
49488;SDS011;35382;51.484;11.476;2023-07-20T00:01:30;15.13;;;4.30;;
49488;SDS011;35382;51.484;11.476;2023-07-20T00:03:12;14.40;;;4.43;;
49488;SDS011;35382;51.484;11.476;2023-07-20T00:04:57;10.68;;;4.07;;
49488;SDS011;35382;51.484;11.476;2023-07-20T00:06:38;8.52;;;4.38;;
49488;SDS011;35382;51.484;11.476;2023-07-20T00:08:21;11.35;;;4.55;;
49488;SDS011;35382;51.484;11.476;2023-07-20T00:10:02;14.95;;;4.10;;
49488;SDS011;35382;51.484;11.476;2023-07-20T00:11:48;13.13;;;3.95;;
49488;SDS011;35382;51.484;11.476;2023-07-20T00:13:31;15.73;;;4.40;;
49488;SDS011;35382;51.484;11.476;2023-07-20T00:15:12;15.10;;;4.50;;
49488;SDS011;35382;51.484;11.476;2023-07-20T00:16:54;13.18;;;4.35;;
49488;SDS011;35382;51.484;11.476;2023-07-20T00:18:36;19.15;;;4.68;;
49488;SDS011;35382;51.484;11.476;2023-07-20T00:20:17;29.38;;;5.40;;
49488;SDS011;35382;51.484;11.476;2023-07-20T00:21:58;19.63;;;5.15;;
49488;SDS011;35382;51.484;11.476;2023-07-20T00:23:39;12.32;;;5.05;;
49488;SDS011;35382;51.484;11.476;2023-07-20T00:25:20;9.55;;;3.97;;
49488;SDS011;35382;51.484;11.476;2023-07-20T00:27:01;17.92;;;4.70;;
49488;SDS011;35382;51.484;11.476;2023-07-20T00:28:43;24.40;;;5.60;;
49488;SDS011;35382;51.484;11.476;2023-07-20T00:30:24;29.77;;;6.40;;
49488;SDS011;35382;51.484;11.476;2023-07-20T00:32:05;19.70;;;5.00;;
49488;SDS011;35382;51.484;11.476;2023-07-20T00:33:46;15.75;;;4.80;;
49488;SDS011;35382;51.484;11.476;2023-07-20T00:35:28;18.20;;;4.65;;
49488;SDS011;35382;51.484;11.476;2023-07-20T00:37:08;30.10;;;6.00;;
49488;SDS011;35382;51.484;11.476;2023-07-20T00:38:49;22.33;;;5.82;;
49488;SDS011;35382;51.484;11.476;2023-07-20T00:40:40;19.70;;;5.40;;
49488;SDS011;35382;51.484;11.476;2023-07-20T00:42:21;18.52;;;4.63;;
49488;SDS011;35382;51.484;11.476;2023-07-20T00:44:02;28.98;;;6.13;;
49488;SDS011;35382;51.484;11.476;2023-07-20T00:45:43;25.83;;;5.65;;
49488;SDS011;35382;51.484;11.476;2023-07-20T00:47:25;18.02;;;5.53;;
49488;SDS011;35382;51.484;11.476;2023-07-20T00:49:07;15.20;;;5.05;;
49488;SDS011;35382;51.484;11.476;2023-07-20T00:50:48;11.82;;;5.22;;
49488;SDS011;35382;51.484;11.476;2023-07-20T00:52:30;14.98;;;5.13;;
49488;SDS011;35382;51.484;11.476;2023-07-20T00:54:11;9.40;;;4.40;;
49488;SDS011;35382;51.484;11.476;2023-07-20T00:55:52;10.13;;;4.20;;
49488;SDS011;35382;51.484;11.476;2023-07-20T00:57:33;15.10;;;4.90;;
49488;SDS011;35382;51.484;11.476;2023-07-20T00:59:14;10.65;;;4.50;;
49488;SDS011;35382;51.484;11.476;2023-07-20T01:00:55;24.83;;;6.10;;
49488;SDS011;35382;51.484;11.476;2023-07-20T01:02:36;26.48;;;6.10;;
49488;SDS011;35382;51.484;11.476;2023-07-20T01:04:17;27.27;;;6.53;;
49488;SDS011;35382;51.484;11.476;2023-07-20T01:07:53;17.77;;;5.43;;
49488;SDS011;35382;51.484;11.476;2023-07-20T01:11:50;41.95;;;6.82;;
49488;SDS011;35382;51.484;11.476;2023-07-20T01:13:39;38.22;;;6.97;;
49488;SDS011;35382;51.484;11.476;2023-07-20T01:15:20;17.83;;;5.50;;
49488;SDS011;35382;51.484;11.476;2023-07-20T01:17:02;36.55;;;6.95;;
49488;SDS011;35382;51.484;11.476;2023-07-20T01:18:43;35.13;;;6.63;;
49488;SDS011;35382;51.484;11.476;2023-07-20T01:20:24;27.25;;;5.90;;
49488;SDS011;35382;51.484;11.476;2023-07-20T01:30:14;12.85;;;5.00;;
49488;SDS011;35382;51.484;11.476;2023-07-20T01:32:06;11.60;;;5.35;;
49488;SDS011;35382;51.484;11.476;2023-07-20T01:33:50;13.68;;;5.47;;
49488;SDS011;35382;51.484;11.476;2023-07-20T01:35:32;13.88;;;6.10;;
49488;SDS011;35382;51.484;11.476;2023-07-20T01:37:14;11.27;;;6.47;;
49488;SDS011;35382;51.484;11.476;2023-07-20T01:38:57;15.55;;;6.93;;
49488;SDS011;35382;51.484;11.476;2023-07-20T01:40:38;12.93;;;5.95;;
49488;SDS011;35382;51.484;11.476;2023-07-20T01:42:24;12.35;;;5.95;;
49488;SDS011;35382;51.484;11.476;2023-07-20T01:44:05;11.30;;;6.47;;
49488;SDS011;35382;51.484;11.476;2023-07-20T01:45:46;14.60;;;6.93;;
49488;SDS011;35382;51.484;11.476;2023-07-20T01:47:28;14.07;;;6.82;;
49488;SDS011;35382;51.484;11.476;2023-07-20T01:49:09;20.88;;;6.60;;
49488;SDS011;35382;51.484;11.476;2023-07-20T01:50:50;13.38;;;6.30;;
49488;SDS011;35382;51.484;11.476;2023-07-20T01:52:31;15.30;;;6.40;;
49488;SDS011;35382;51.484;11.476;2023-07-20T01:54:12;12.30;;;6.25;;
49488;SDS011;35382;51.484;11.476;2023-07-20T01:55:53;11.25;;;6.57;;
49488;SDS011;35382;51.484;11.476;2023-07-20T01:57:35;10.48;;;6.53;;
49488;SDS011;35382;51.484;11.476;2023-07-20T01:59:16;15.02;;;5.80;;
49488;SDS011;35382;51.484;11.476;2023-07-20T02:00:57;11.95;;;5.38;;
49488;SDS011;35382;51.484;11.476;2023-07-20T02:02:38;9.70;;;6.00;;
49488;SDS011;35382;51.484;11.476;2023-07-20T02:04:19;13.20;;;5.50;;
49488;SDS011;35382;51.484;11.476;2023-07-20T02:06:01;10.60;;;6.00;;
49488;SDS011;35382;51.484;11.476;2023-07-20T02:07:42;13.82;;;5.93;;
49488;SDS011;35382;51.484;11.476;2023-07-20T02:09:23;13.07;;;5.88;;
49488;SDS011;35382;51.484;11.476;2023-07-20T02:11:04;11.43;;;6.03;;
49488;SDS011;35382;51.484;11.476;2023-07-20T02:12:45;15.70;;;6.20;;
49488;SDS011;35382;51.484;11.476;2023-07-20T02:14:26;13.20;;;5.88;;
49488;SDS011;35382;51.484;11.476;2023-07-20T02:16:08;16.75;;;6.25;;
49488;SDS011;35382;51.484;11.476;2023-07-20T02:17:49;17.20;;;6.00;;
49488;SDS011;35382;51.484;11.476;2023-07-20T02:19:30;20.77;;;6.70;;
49488;SDS011;35382;51.484;11.476;2023-07-20T02:21:11;19.33;;;6.18;;
49488;SDS011;35382;51.484;11.476;2023-07-20T02:22:52;16.48;;;5.80;;
49488;SDS011;35382;51.484;11.476;2023-07-20T02:24:33;15.30;;;5.68;;
49488;SDS011;35382;51.484;11.476;2023-07-20T02:26:14;15.82;;;5.93;;
49488;SDS011;35382;51.484;11.476;2023-07-20T02:27:56;19.33;;;6.43;;
49488;SDS011;35382;51.484;11.476;2023-07-20T02:29:37;22.25;;;6.07;;
49488;SDS011;35382;51.484;11.476;2023-07-20T02:31:18;22.85;;;6.55;;
49488;SDS011;35382;51.484;11.476;2023-07-20T02:32:58;21.75;;;6.68;;
49488;SDS011;35382;51.484;11.476;2023-07-20T02:34:40;36.08;;;7.68;;
49488;SDS011;35382;51.484;11.476;2023-07-20T02:36:21;33.63;;;8.13;;
49488;SDS011;35382;51.484;11.476;2023-07-20T02:38:02;39.72;;;7.72;;
49488;SDS011;35382;51.484;11.476;2023-07-20T02:39:43;26.50;;;6.85;;
49488;SDS011;35382;51.484;11.476;2023-07-20T02:41:24;38.92;;;7.57;;
49488;SDS011;35382;51.484;11.476;2023-07-20T02:43:05;32.03;;;6.65;;
49488;SDS011;35382;51.484;11.476;2023-07-20T02:44:46;40.38;;;7.70;;
49488;SDS011;35382;51.484;11.476;2023-07-20T02:46:27;44.08;;;7.95;;
49488;SDS011;35382;51.484;11.476;2023-07-20T02:48:10;28.33;;;8.30;;
49488;SDS011;35382;51.484;11.476;2023-07-20T02:49:51;28.08;;;7.20;;
49488;SDS011;35382;51.484;11.476;2023-07-20T02:51:33;13.93;;;7.40;;
49488;SDS011;35382;51.484;11.476;2023-07-20T02:53:14;13.85;;;7.30;;
49488;SDS011;35382;51.484;11.476;2023-07-20T02:54:55;13.27;;;7.15;;
49488;SDS011;35382;51.484;11.476;2023-07-20T02:56:36;12.15;;;7.28;;
49488;SDS011;35382;51.484;11.476;2023-07-20T02:58:17;14.95;;;8.25;;
49488;SDS011;35382;51.484;11.476;2023-07-20T02:59:58;13.30;;;8.02;;
49488;SDS011;35382;51.484;11.476;2023-07-20T03:01:39;12.00;;;8.27;;
49488;SDS011;35382;51.484;11.476;2023-07-20T03:03:20;14.15;;;9.18;;
49488;SDS011;35382;51.484;11.476;2023-07-20T03:05:01;16.08;;;8.40;;
49488;SDS011;35382;51.484;11.476;2023-07-20T03:06:43;15.73;;;7.95;;
49488;SDS011;35382;51.484;11.476;2023-07-20T03:08:24;17.60;;;8.32;;
49488;SDS011;35382;51.484;11.476;2023-07-20T03:10:05;24.33;;;9.00;;
49488;SDS011;35382;51.484;11.476;2023-07-20T03:11:49;22.33;;;8.90;;
49488;SDS011;35382;51.484;11.476;2023-07-20T03:13:31;23.83;;;9.27;;
49488;SDS011;35382;51.484;11.476;2023-07-20T03:15:12;24.02;;;9.93;;
49488;SDS011;35382;51.484;11.476;2023-07-20T03:16:54;27.58;;;9.73;;
49488;SDS011;35382;51.484;11.476;2023-07-20T03:18:35;22.05;;;10.23;;
49488;SDS011;35382;51.484;11.476;2023-07-20T03:20:16;25.63;;;9.77;;
49488;SDS011;35382;51.484;11.476;2023-07-20T03:21:57;18.15;;;9.82;;
49488;SDS011;35382;51.484;11.476;2023-07-20T03:23:38;22.83;;;10.57;;
49488;SDS011;35382;51.484;11.476;2023-07-20T03:25:20;18.67;;;9.18;;
49488;SDS011;35382;51.484;11.476;2023-07-20T03:27:01;20.58;;;9.88;;
49488;SDS011;35382;51.484;11.476;2023-07-20T03:28:42;18.50;;;10.52;;
49488;SDS011;35382;51.484;11.476;2023-07-20T03:30:25;21.15;;;9.18;;
49488;SDS011;35382;51.484;11.476;2023-07-20T03:32:06;29.95;;;11.82;;
49488;SDS011;35382;51.484;11.476;2023-07-20T03:33:48;21.00;;;9.18;;
49488;SDS011;35382;51.484;11.476;2023-07-20T03:35:29;16.50;;;9.38;;
49488;SDS011;35382;51.484;11.476;2023-07-20T03:37:10;22.95;;;9.60;;
49488;SDS011;35382;51.484;11.476;2023-07-20T03:38:51;17.23;;;9.63;;
49488;SDS011;35382;51.484;11.476;2023-07-20T03:40:32;22.02;;;10.82;;
49488;SDS011;35382;51.484;11.476;2023-07-20T03:42:13;24.25;;;9.85;;
49488;SDS011;35382;51.484;11.476;2023-07-20T03:43:54;21.92;;;9.80;;
49488;SDS011;35382;51.484;11.476;2023-07-20T03:45:35;23.92;;;9.85;;
49488;SDS011;35382;51.484;11.476;2023-07-20T03:47:16;28.17;;;9.52;;
49488;SDS011;35382;51.484;11.476;2023-07-20T03:48:57;18.65;;;10.57;;
49488;SDS011;35382;51.484;11.476;2023-07-20T03:50:38;24.38;;;10.38;;
49488;SDS011;35382;51.484;11.476;2023-07-20T03:52:19;18.83;;;9.57;;
49488;SDS011;35382;51.484;11.476;2023-07-20T03:54:00;18.75;;;9.60;;
49488;SDS011;35382;51.484;11.476;2023-07-20T03:55:44;23.35;;;10.02;;
49488;SDS011;35382;51.484;11.476;2023-07-20T03:57:27;22.17;;;10.85;;
49488;SDS011;35382;51.484;11.476;2023-07-20T03:59:08;20.05;;;9.52;;
49488;SDS011;35382;51.484;11.476;2023-07-20T04:00:49;15.55;;;8.00;;
49488;SDS011;35382;51.484;11.476;2023-07-20T04:02:32;17.92;;;8.00;;
49488;SDS011;35382;51.484;11.476;2023-07-20T04:04:15;15.60;;;7.40;;
49488;SDS011;35382;51.484;11.476;2023-07-20T04:05:56;17.27;;;7.82;;
49488;SDS011;35382;51.484;11.476;2023-07-20T04:07:37;16.92;;;7.82;;
49488;SDS011;35382;51.484;11.476;2023-07-20T04:09:18;17.90;;;8.10;;
49488;SDS011;35382;51.484;11.476;2023-07-20T04:11:02;18.42;;;8.65;;
49488;SDS011;35382;51.484;11.476;2023-07-20T04:12:44;25.75;;;7.68;;
49488;SDS011;35382;51.484;11.476;2023-07-20T04:14:28;22.05;;;8.00;;
49488;SDS011;35382;51.484;11.476;2023-07-20T04:16:09;25.40;;;8.05;;
49488;SDS011;35382;51.484;11.476;2023-07-20T04:17:49;22.90;;;7.85;;
49488;SDS011;35382;51.484;11.476;2023-07-20T04:19:30;26.70;;;8.02;;
49488;SDS011;35382;51.484;11.476;2023-07-20T04:21:11;28.35;;;9.80;;
49488;SDS011;35382;51.484;11.476;2023-07-20T04:22:52;19.88;;;9.13;;
49488;SDS011;35382;51.484;11.476;2023-07-20T04:24:34;25.55;;;9.57;;
49488;SDS011;35382;51.484;11.476;2023-07-20T04:26:15;27.17;;;11.75;;
49488;SDS011;35382;51.484;11.476;2023-07-20T04:27:56;19.98;;;11.80;;
49488;SDS011;35382;51.484;11.476;2023-07-20T04:29:37;17.80;;;11.40;;
49488;SDS011;35382;51.484;11.476;2023-07-20T04:31:18;16.58;;;10.07;;
49488;SDS011;35382;51.484;11.476;2023-07-20T04:32:59;20.30;;;10.98;;
49488;SDS011;35382;51.484;11.476;2023-07-20T04:34:41;24.17;;;11.18;;
49488;SDS011;35382;51.484;11.476;2023-07-20T04:36:22;17.95;;;11.77;;
49488;SDS011;35382;51.484;11.476;2023-07-20T04:38:04;18.73;;;12.40;;
49488;SDS011;35382;51.484;11.476;2023-07-20T04:39:46;19.92;;;12.40;;
49488;SDS011;35382;51.484;11.476;2023-07-20T04:41:28;20.05;;;12.30;;
49488;SDS011;35382;51.484;11.476;2023-07-20T04:43:12;22.15;;;12.30;;
49488;SDS011;35382;51.484;11.476;2023-07-20T04:44:53;23.20;;;13.40;;
49488;SDS011;35382;51.484;11.476;2023-07-20T04:46:34;18.80;;;13.15;;
49488;SDS011;35382;51.484;11.476;2023-07-20T04:48:17;17.27;;;12.63;;
49488;SDS011;35382;51.484;11.476;2023-07-20T04:50:04;13.82;;;11.80;;
49488;SDS011;35382;51.484;11.476;2023-07-20T04:51:45;12.80;;;10.93;;
49488;SDS011;35382;51.484;11.476;2023-07-20T04:53:26;16.58;;;10.95;;
49488;SDS011;35382;51.484;11.476;2023-07-20T04:55:08;14.88;;;11.02;;
49488;SDS011;35382;51.484;11.476;2023-07-20T04:56:49;19.17;;;10.65;;
49488;SDS011;35382;51.484;11.476;2023-07-20T04:58:30;17.58;;;11.70;;
49488;SDS011;35382;51.484;11.476;2023-07-20T05:00:12;17.35;;;11.43;;
49488;SDS011;35382;51.484;11.476;2023-07-20T05:01:53;16.55;;;11.55;;
49488;SDS011;35382;51.484;11.476;2023-07-20T05:03:34;15.48;;;11.52;;
49488;SDS011;35382;51.484;11.476;2023-07-20T05:05:16;15.38;;;12.30;;
49488;SDS011;35382;51.484;11.476;2023-07-20T05:06:57;15.18;;;11.35;;
49488;SDS011;35382;51.484;11.476;2023-07-20T05:08:38;18.30;;;11.32;;
49488;SDS011;35382;51.484;11.476;2023-07-20T05:10:19;16.95;;;11.43;;
49488;SDS011;35382;51.484;11.476;2023-07-20T05:12:01;14.88;;;10.88;;
49488;SDS011;35382;51.484;11.476;2023-07-20T05:13:43;20.55;;;10.43;;
49488;SDS011;35382;51.484;11.476;2023-07-20T05:15:24;15.90;;;11.10;;
49488;SDS011;35382;51.484;11.476;2023-07-20T05:17:07;19.58;;;10.85;;
49488;SDS011;35382;51.484;11.476;2023-07-20T05:18:48;18.70;;;10.90;;
49488;SDS011;35382;51.484;11.476;2023-07-20T05:20:29;12.10;;;9.30;;
49488;SDS011;35382;51.484;11.476;2023-07-20T05:22:10;18.85;;;8.70;;
49488;SDS011;35382;51.484;11.476;2023-07-20T05:23:52;12.10;;;7.57;;
49488;SDS011;35382;51.484;11.476;2023-07-20T05:25:33;13.07;;;7.05;;
49488;SDS011;35382;51.484;11.476;2023-07-20T05:27:14;9.85;;;6.53;;
49488;SDS011;35382;51.484;11.476;2023-07-20T05:28:55;13.38;;;6.70;;
49488;SDS011;35382;51.484;11.476;2023-07-20T05:30:36;12.23;;;6.60;;
49488;SDS011;35382;51.484;11.476;2023-07-20T05:32:17;9.75;;;6.85;;
49488;SDS011;35382;51.484;11.476;2023-07-20T05:33:58;10.05;;;6.82;;
49488;SDS011;35382;51.484;11.476;2023-07-20T05:35:39;11.48;;;6.72;;
49488;SDS011;35382;51.484;11.476;2023-07-20T05:37:20;10.35;;;6.30;;
49488;SDS011;35382;51.484;11.476;2023-07-20T05:39:02;11.13;;;7.00;;
49488;SDS011;35382;51.484;11.476;2023-07-20T05:40:44;10.93;;;6.88;;
49488;SDS011;35382;51.484;11.476;2023-07-20T05:42:25;10.40;;;8.60;;
49488;SDS011;35382;51.484;11.476;2023-07-20T05:44:07;12.20;;;7.75;;
49488;SDS011;35382;51.484;11.476;2023-07-20T05:45:48;10.07;;;7.05;;
49488;SDS011;35382;51.484;11.476;2023-07-20T05:47:29;9.50;;;6.85;;
49488;SDS011;35382;51.484;11.476;2023-07-20T05:49:10;11.93;;;7.07;;
49488;SDS011;35382;51.484;11.476;2023-07-20T05:50:51;9.25;;;7.10;;
49488;SDS011;35382;51.484;11.476;2023-07-20T05:52:32;10.32;;;6.65;;
49488;SDS011;35382;51.484;11.476;2023-07-20T05:54:14;12.32;;;7.32;;
49488;SDS011;35382;51.484;11.476;2023-07-20T05:55:55;11.18;;;7.13;;
49488;SDS011;35382;51.484;11.476;2023-07-20T05:57:36;11.48;;;7.90;;
49488;SDS011;35382;51.484;11.476;2023-07-20T05:59:20;12.00;;;8.05;;
49488;SDS011;35382;51.484;11.476;2023-07-20T06:01:01;11.52;;;7.00;;
49488;SDS011;35382;51.484;11.476;2023-07-20T06:02:42;8.52;;;7.03;;
49488;SDS011;35382;51.484;11.476;2023-07-20T06:04:26;10.55;;;7.07;;
49488;SDS011;35382;51.484;11.476;2023-07-20T06:06:07;9.75;;;6.75;;
49488;SDS011;35382;51.484;11.476;2023-07-20T06:07:50;9.85;;;7.75;;
49488;SDS011;35382;51.484;11.476;2023-07-20T06:09:31;9.82;;;7.45;;
49488;SDS011;35382;51.484;11.476;2023-07-20T06:11:14;11.85;;;8.85;;
49488;SDS011;35382;51.484;11.476;2023-07-20T06:12:55;12.50;;;8.57;;
49488;SDS011;35382;51.484;11.476;2023-07-20T06:14:36;13.90;;;8.40;;
49488;SDS011;35382;51.484;11.476;2023-07-20T06:16:17;9.32;;;7.55;;
49488;SDS011;35382;51.484;11.476;2023-07-20T06:17:58;14.75;;;8.02;;
49488;SDS011;35382;51.484;11.476;2023-07-20T06:19:39;8.93;;;7.70;;
49488;SDS011;35382;51.484;11.476;2023-07-20T06:21:20;14.13;;;8.45;;
49488;SDS011;35382;51.484;11.476;2023-07-20T06:23:03;11.52;;;8.75;;
49488;SDS011;35382;51.484;11.476;2023-07-20T06:24:44;13.20;;;9.27;;
49488;SDS011;35382;51.484;11.476;2023-07-20T06:26:25;10.77;;;9.65;;
49488;SDS011;35382;51.484;11.476;2023-07-20T06:28:06;13.23;;;8.77;;
49488;SDS011;35382;51.484;11.476;2023-07-20T06:29:47;10.65;;;8.70;;
49488;SDS011;35382;51.484;11.476;2023-07-20T06:31:28;10.85;;;7.70;;
49488;SDS011;35382;51.484;11.476;2023-07-20T06:33:09;12.05;;;8.20;;
49488;SDS011;35382;51.484;11.476;2023-07-20T06:34:50;9.95;;;8.55;;
49488;SDS011;35382;51.484;11.476;2023-07-20T06:36:31;8.50;;;7.20;;
49488;SDS011;35382;51.484;11.476;2023-07-20T06:38:12;9.52;;;7.45;;
49488;SDS011;35382;51.484;11.476;2023-07-20T06:39:53;9.77;;;7.93;;
49488;SDS011;35382;51.484;11.476;2023-07-20T06:41:34;9.43;;;7.90;;
49488;SDS011;35382;51.484;11.476;2023-07-20T06:43:15;8.57;;;7.47;;
49488;SDS011;35382;51.484;11.476;2023-07-20T06:44:57;10.68;;;7.88;;
49488;SDS011;35382;51.484;11.476;2023-07-20T06:46:38;13.23;;;8.45;;
49488;SDS011;35382;51.484;11.476;2023-07-20T06:48:19;9.63;;;7.90;;
49488;SDS011;35382;51.484;11.476;2023-07-20T06:50:00;9.85;;;8.13;;
49488;SDS011;35382;51.484;11.476;2023-07-20T06:51:41;10.60;;;7.70;;
49488;SDS011;35382;51.484;11.476;2023-07-20T06:53:22;8.98;;;8.07;;
49488;SDS011;35382;51.484;11.476;2023-07-20T06:55:03;8.57;;;6.50;;
49488;SDS011;35382;51.484;11.476;2023-07-20T06:56:44;9.23;;;7.43;;
49488;SDS011;35382;51.484;11.476;2023-07-20T06:58:25;8.30;;;6.88;;
49488;SDS011;35382;51.484;11.476;2023-07-20T07:00:06;9.98;;;7.18;;
49488;SDS011;35382;51.484;11.476;2023-07-20T07:01:48;12.25;;;7.03;;
49488;SDS011;35382;51.484;11.476;2023-07-20T07:03:29;8.77;;;6.40;;
49488;SDS011;35382;51.484;11.476;2023-07-20T07:05:11;9.30;;;7.38;;
49488;SDS011;35382;51.484;11.476;2023-07-20T07:06:55;10.27;;;5.75;;
49488;SDS011;35382;51.484;11.476;2023-07-20T07:08:35;7.68;;;6.07;;
49488;SDS011;35382;51.484;11.476;2023-07-20T07:10:17;9.50;;;6.55;;
49488;SDS011;35382;51.484;11.476;2023-07-20T07:11:58;7.55;;;6.55;;
49488;SDS011;35382;51.484;11.476;2023-07-20T07:13:40;8.40;;;6.28;;
49488;SDS011;35382;51.484;11.476;2023-07-20T07:15:20;7.80;;;6.72;;
49488;SDS011;35382;51.484;11.476;2023-07-20T07:17:01;8.43;;;6.72;;
49488;SDS011;35382;51.484;11.476;2023-07-20T07:18:43;10.32;;;6.50;;
49488;SDS011;35382;51.484;11.476;2023-07-20T07:20:24;7.10;;;5.93;;
49488;SDS011;35382;51.484;11.476;2023-07-20T07:22:06;10.30;;;6.78;;
49488;SDS011;35382;51.484;11.476;2023-07-20T07:23:47;7.45;;;6.20;;
49488;SDS011;35382;51.484;11.476;2023-07-20T07:25:28;7.97;;;6.75;;
49488;SDS011;35382;51.484;11.476;2023-07-20T07:27:10;9.02;;;6.47;;
49488;SDS011;35382;51.484;11.476;2023-07-20T07:28:51;9.25;;;7.07;;
49488;SDS011;35382;51.484;11.476;2023-07-20T07:30:32;7.30;;;6.15;;
49488;SDS011;35382;51.484;11.476;2023-07-20T07:32:13;9.35;;;6.13;;
49488;SDS011;35382;51.484;11.476;2023-07-20T07:33:54;7.97;;;6.18;;
49488;SDS011;35382;51.484;11.476;2023-07-20T07:35:36;8.10;;;6.38;;
49488;SDS011;35382;51.484;11.476;2023-07-20T07:37:18;8.90;;;6.68;;
49488;SDS011;35382;51.484;11.476;2023-07-20T07:39:00;7.60;;;6.40;;
49488;SDS011;35382;51.484;11.476;2023-07-20T07:40:41;10.10;;;6.72;;
49488;SDS011;35382;51.484;11.476;2023-07-20T07:42:22;11.52;;;7.00;;
49488;SDS011;35382;51.484;11.476;2023-07-20T07:44:04;6.63;;;5.40;;
49488;SDS011;35382;51.484;11.476;2023-07-20T07:45:45;7.65;;;6.13;;
49488;SDS011;35382;51.484;11.476;2023-07-20T07:47:26;7.97;;;5.90;;
49488;SDS011;35382;51.484;11.476;2023-07-20T07:49:07;7.15;;;5.25;;
49488;SDS011;35382;51.484;11.476;2023-07-20T07:50:48;7.53;;;5.28;;
49488;SDS011;35382;51.484;11.476;2023-07-20T07:52:30;9.07;;;5.45;;
49488;SDS011;35382;51.484;11.476;2023-07-20T07:54:11;7.35;;;5.22;;
49488;SDS011;35382;51.484;11.476;2023-07-20T07:55:53;8.57;;;5.07;;
49488;SDS011;35382;51.484;11.476;2023-07-20T07:57:34;7.85;;;5.22;;
49488;SDS011;35382;51.484;11.476;2023-07-20T07:59:15;6.45;;;5.43;;
49488;SDS011;35382;51.484;11.476;2023-07-20T08:00:56;5.95;;;4.68;;
49488;SDS011;35382;51.484;11.476;2023-07-20T08:02:37;7.38;;;5.53;;
49488;SDS011;35382;51.484;11.476;2023-07-20T08:04:20;7.15;;;4.70;;
49488;SDS011;35382;51.484;11.476;2023-07-20T08:06:04;7.53;;;5.55;;
49488;SDS011;35382;51.484;11.476;2023-07-20T08:07:45;6.72;;;5.47;;
49488;SDS011;35382;51.484;11.476;2023-07-20T08:09:26;6.97;;;4.70;;
49488;SDS011;35382;51.484;11.476;2023-07-20T08:11:07;5.47;;;4.50;;
49488;SDS011;35382;51.484;11.476;2023-07-20T08:12:48;6.10;;;4.63;;
49488;SDS011;35382;51.484;11.476;2023-07-20T08:14:32;6.10;;;4.72;;
49488;SDS011;35382;51.484;11.476;2023-07-20T08:16:13;5.93;;;4.85;;
49488;SDS011;35382;51.484;11.476;2023-07-20T08:17:54;6.22;;;4.68;;
49488;SDS011;35382;51.484;11.476;2023-07-20T08:19:36;8.43;;;4.82;;
49488;SDS011;35382;51.484;11.476;2023-07-20T08:21:22;6.70;;;4.57;;
49488;SDS011;35382;51.484;11.476;2023-07-20T08:23:03;7.72;;;5.10;;
49488;SDS011;35382;51.484;11.476;2023-07-20T08:24:44;7.82;;;5.70;;
49488;SDS011;35382;51.484;11.476;2023-07-20T08:26:25;7.32;;;5.28;;
49488;SDS011;35382;51.484;11.476;2023-07-20T08:28:06;8.07;;;6.25;;
49488;SDS011;35382;51.484;11.476;2023-07-20T08:29:48;7.88;;;5.72;;
49488;SDS011;35382;51.484;11.476;2023-07-20T08:31:30;8.55;;;6.00;;
49488;SDS011;35382;51.484;11.476;2023-07-20T08:33:13;8.88;;;6.28;;
49488;SDS011;35382;51.484;11.476;2023-07-20T08:34:54;7.70;;;5.57;;
49488;SDS011;35382;51.484;11.476;2023-07-20T08:36:35;8.55;;;5.85;;
49488;SDS011;35382;51.484;11.476;2023-07-20T08:38:22;9.70;;;5.78;;
49488;SDS011;35382;51.484;11.476;2023-07-20T08:40:03;8.52;;;6.40;;
49488;SDS011;35382;51.484;11.476;2023-07-20T08:41:46;8.45;;;6.80;;
49488;SDS011;35382;51.484;11.476;2023-07-20T08:43:27;8.18;;;6.60;;
49488;SDS011;35382;51.484;11.476;2023-07-20T08:45:09;7.93;;;6.15;;
49488;SDS011;35382;51.484;11.476;2023-07-20T08:46:50;10.13;;;7.57;;
49488;SDS011;35382;51.484;11.476;2023-07-20T08:48:35;10.40;;;5.80;;
49488;SDS011;35382;51.484;11.476;2023-07-20T08:50:16;9.70;;;5.55;;
49488;SDS011;35382;51.484;11.476;2023-07-20T08:51:57;8.70;;;5.00;;
49488;SDS011;35382;51.484;11.476;2023-07-20T08:53:39;6.47;;;4.75;;
49488;SDS011;35382;51.484;11.476;2023-07-20T08:55:22;7.07;;;4.75;;
49488;SDS011;35382;51.484;11.476;2023-07-20T08:57:04;7.53;;;4.63;;
49488;SDS011;35382;51.484;11.476;2023-07-20T08:58:47;7.53;;;5.03;;
49488;SDS011;35382;51.484;11.476;2023-07-20T09:00:29;9.00;;;6.43;;
49488;SDS011;35382;51.484;11.476;2023-07-20T09:02:10;8.57;;;5.50;;
49488;SDS011;35382;51.484;11.476;2023-07-20T09:03:58;7.95;;;5.35;;
49488;SDS011;35382;51.484;11.476;2023-07-20T09:05:40;8.95;;;5.78;;
49488;SDS011;35382;51.484;11.476;2023-07-20T09:07:21;7.40;;;5.55;;
49488;SDS011;35382;51.484;11.476;2023-07-20T09:09:02;7.03;;;5.22;;
49488;SDS011;35382;51.484;11.476;2023-07-20T09:10:44;7.20;;;5.47;;
49488;SDS011;35382;51.484;11.476;2023-07-20T09:12:25;6.38;;;4.53;;
49488;SDS011;35382;51.484;11.476;2023-07-20T09:14:07;7.25;;;5.47;;
49488;SDS011;35382;51.484;11.476;2023-07-20T09:15:54;1.77;;;1.25;;
49488;SDS011;35382;51.484;11.476;2023-07-20T09:17:36;1.85;;;1.20;;
49488;SDS011;35382;51.484;11.476;2023-07-20T09:19:18;1.88;;;1.50;;
49488;SDS011;35382;51.484;11.476;2023-07-20T09:21:03;2.85;;;1.90;;
49488;SDS011;35382;51.484;11.476;2023-07-20T09:22:47;2.83;;;2.10;;
49488;SDS011;35382;51.484;11.476;2023-07-20T09:24:28;3.10;;;2.60;;
49488;SDS011;35382;51.484;11.476;2023-07-20T09:26:13;3.97;;;3.20;;
49488;SDS011;35382;51.484;11.476;2023-07-20T09:27:54;5.15;;;3.45;;
49488;SDS011;35382;51.484;11.476;2023-07-20T09:29:42;3.80;;;3.03;;
49488;SDS011;35382;51.484;11.476;2023-07-20T09:31:28;4.68;;;3.90;;
49488;SDS011;35382;51.484;11.476;2023-07-20T09:33:18;4.95;;;3.50;;
49488;SDS011;35382;51.484;11.476;2023-07-20T09:35:02;4.70;;;4.10;;
49488;SDS011;35382;51.484;11.476;2023-07-20T09:36:43;5.07;;;3.70;;
49488;SDS011;35382;51.484;11.476;2023-07-20T09:38:24;6.32;;;3.65;;
49488;SDS011;35382;51.484;11.476;2023-07-20T09:40:07;4.68;;;3.70;;
49488;SDS011;35382;51.484;11.476;2023-07-20T09:41:59;4.32;;;3.60;;
49488;SDS011;35382;51.484;11.476;2023-07-20T09:43:41;5.05;;;3.80;;
49488;SDS011;35382;51.484;11.476;2023-07-20T09:45:23;6.07;;;4.00;;
49488;SDS011;35382;51.484;11.476;2023-07-20T09:47:04;5.07;;;3.67;;
49488;SDS011;35382;51.484;11.476;2023-07-20T09:48:54;4.32;;;3.80;;
49488;SDS011;35382;51.484;11.476;2023-07-20T09:50:56;5.93;;;3.90;;
49488;SDS011;35382;51.484;11.476;2023-07-20T09:52:40;5.07;;;3.47;;
49488;SDS011;35382;51.484;11.476;2023-07-20T09:54:22;4.65;;;3.28;;
49488;SDS011;35382;51.484;11.476;2023-07-20T09:56:05;3.92;;;3.08;;
49488;SDS011;35382;51.484;11.476;2023-07-20T09:57:48;3.95;;;3.03;;
49488;SDS011;35382;51.484;11.476;2023-07-20T09:59:31;3.70;;;3.03;;
49488;SDS011;35382;51.484;11.476;2023-07-20T10:01:12;3.60;;;3.17;;
49488;SDS011;35382;51.484;11.476;2023-07-20T10:02:56;4.65;;;2.80;;
49488;SDS011;35382;51.484;11.476;2023-07-20T10:04:40;4.45;;;3.58;;
49488;SDS011;35382;51.484;11.476;2023-07-20T10:06:24;5.28;;;3.10;;
49488;SDS011;35382;51.484;11.476;2023-07-20T10:08:10;5.28;;;2.63;;
49488;SDS011;35382;51.484;11.476;2023-07-20T10:09:52;3.25;;;2.45;;
49488;SDS011;35382;51.484;11.476;2023-07-20T10:11:35;3.13;;;1.80;;